TimeCST,TemperatureF,Dew PointF,Humidity,Sea Level PressureIn,VisibilityMPH,Wind Direction,Wind SpeedMPH,Gust SpeedMPH,PrecipitationIn,Events,Conditions,WindDirDegrees,DateUTC
12:14 AM,57.2,51.8,82,30.13,10.0,SE,5.8,-,N/A,,Overcast,140,2013-01-01 06:14:00
12:22 AM,57.2,53.6,88,30.13,10.0,SE,5.8,-,N/A,,Overcast,140,2013-01-01 06:22:00
12:23 AM,57.2,53.6,88,30.13,10.0,SE,5.8,-,N/A,,Overcast,140,2013-01-01 06:23:00
12:34 AM,57.2,53.6,88,30.13,10.0,SSE,3.5,-,N/A,,Mostly Cloudy,150,2013-01-01 06:34:00
12:55 AM,56.3,53.2,89,30.12,10.0,SSE,5.8,-,N/A,,Scattered Clouds,150,2013-01-01 06:55:00
1:55 AM,55.4,54.1,96,30.11,10.0,Calm,Calm,-,N/A,,Mostly Cloudy,0,2013-01-01 07:55:00
2:55 AM,55.0,54.5,98,30.09,7.0,SSE,5.8,-,N/A,,Clear,160,2013-01-01 08:55:00
3:55 AM,61.2,59.9,96,30.06,10.0,South,10.4,-,N/A,,Clear,170,2013-01-01 09:55:00
4:55 AM,60.4,59.9,98,30.06,10.0,South,9.2,-,N/A,,Clear,170,2013-01-01 10:55:00
5:55 AM,59.7,59.5,99,30.05,10.0,South,8.1,-,N/A,,Clear,170,2013-01-01 11:55:00
6:38 AM,59.0,57.2,94,30.06,2.0,South,3.5,-,N/A,,Clear,170,2013-01-01 12:38:00
6:39 AM,59.0,57.2,94,30.06,1.5,South,4.6,-,N/A,,Clear,180,2013-01-01 12:39:00
6:40 AM,57.2,57.2,100,30.06,1.0,South,4.6,-,N/A,,Clear,180,2013-01-01 12:40:00
6:41 AM,57.2,57.2,100,30.06,0.8,South,4.6,-,N/A,,Clear,180,2013-01-01 12:41:00
6:43 AM,57.2,57.2,100,30.06,0.5,South,4.6,-,N/A,Fog,Fog,170,2013-01-01 12:43:00
6:46 AM,57.2,57.2,100,30.06,0.2,South,5.8,-,N/A,Fog,Fog,170,2013-01-01 12:46:00
6:52 AM,57.2,57.2,100,30.06,0.5,SSE,5.8,-,N/A,Fog,Fog,160,2013-01-01 12:52:00
6:55 AM,57.4,57.2,99,30.06,0.5,SSE,5.8,-,N/A,Fog,Fog,160,2013-01-01 12:55:00
6:56 AM,57.2,57.2,100,30.06,0.8,South,4.6,-,N/A,,Clear,170,2013-01-01 12:56:00
6:58 AM,57.2,57.2,100,30.06,1.0,SSE,4.6,-,N/A,,Clear,160,2013-01-01 12:58:00
7:02 AM,57.2,55.4,94,30.06,0.8,South,4.6,-,N/A,,Clear,170,2013-01-01 13:02:00
7:04 AM,57.2,55.4,94,30.06,0.5,South,4.6,-,N/A,Fog,Fog,170,2013-01-01 13:04:00
7:08 AM,57.2,55.4,94,30.06,0.2,South,5.8,-,N/A,Fog,Fog,180,2013-01-01 13:08:00
7:25 AM,55.4,55.4,100,30.06,0.5,South,4.6,-,N/A,Fog,Fog,180,2013-01-01 13:25:00
7:29 AM,57.2,57.2,100,30.06,0.8,South,5.8,-,N/A,,Clear,180,2013-01-01 13:29:00
7:31 AM,57.2,57.2,100,30.06,1.0,South,5.8,-,N/A,,Clear,170,2013-01-01 13:31:00
7:33 AM,57.2,57.2,100,30.06,1.2,South,5.8,-,N/A,,Clear,170,2013-01-01 13:33:00
7:34 AM,59.0,57.2,94,30.06,1.5,South,5.8,-,N/A,,Clear,170,2013-01-01 13:34:00
7:36 AM,59.0,59.0,100,30.06,2.5,South,5.8,-,N/A,,Clear,170,2013-01-01 13:36:00
7:37 AM,59.0,59.0,100,30.06,3.0,South,5.8,-,N/A,,Clear,170,2013-01-01 13:37:00
7:55 AM,60.6,60.4,99,30.06,10.0,South,6.9,-,N/A,,Clear,170,2013-01-01 13:55:00
8:55 AM,68.2,60.6,77,30.07,10.0,South,10.4,-,N/A,,Clear,180,2013-01-01 14:55:00
9:55 AM,72.3,60.6,67,30.07,10.0,South,15.0,25.3,N/A,,Clear,190,2013-01-01 15:55:00
10:55 AM,74.5,60.8,62,30.06,10.0,South,18.4,-,N/A,,Partly Cloudy,180,2013-01-01 16:55:00
11:55 AM,72.9,61.2,67,30.04,10.0,South,12.7,-,N/A,,Partly Cloudy,190,2013-01-01 17:55:00
12:55 PM,72.3,61.3,68,30.00,10.0,South,16.1,-,N/A,,Scattered Clouds,190,2013-01-01 18:55:00
1:55 PM,71.2,62.1,73,29.99,10.0,South,15.0,-,N/A,,Mostly Cloudy,190,2013-01-01 19:55:00
2:55 PM,70.9,62.8,75,29.98,10.0,South,13.8,-,N/A,,Mostly Cloudy,180,2013-01-01 20:55:00
3:55 PM,70.0,63.7,80,29.98,10.0,South,10.4,-,N/A,,Scattered Clouds,180,2013-01-01 21:55:00
3:57 PM,69.8,62.6,78,29.98,10.0,South,9.2,-,N/A,,Mostly Cloudy,190,2013-01-01 21:57:00
4:00 PM,69.8,62.6,78,29.98,10.0,South,10.4,-,N/A,,Mostly Cloudy,180,2013-01-01 22:00:00
4:26 PM,69.8,64.4,83,29.98,10.0,South,10.4,-,N/A,,Light Drizzle,190,2013-01-01 22:26:00
4:36 PM,68.0,64.4,88,29.99,10.0,South,10.4,-,N/A,,Scattered Clouds,190,2013-01-01 22:36:00
4:55 PM,68.9,64.0,84,29.98,10.0,South,11.5,-,0.00,,Mostly Cloudy,190,2013-01-01 22:55:00
5:54 PM,68.0,64.4,88,29.98,10.0,South,11.5,-,N/A,,Mostly Cloudy,190,2013-01-01 23:54:00
5:55 PM,68.2,64.9,89,29.98,10.0,South,10.4,-,N/A,,Mostly Cloudy,190,2013-01-01 23:55:00
6:16 PM,68.0,66.2,94,29.98,10.0,South,10.4,-,N/A,,Overcast,180,2013-01-02 00:16:00
6:55 PM,68.5,66.6,93,29.98,10.0,South,12.7,-,N/A,,Overcast,190,2013-01-02 00:55:00
7:55 PM,68.9,66.7,93,29.99,10.0,South,11.5,20.7,N/A,,Overcast,190,2013-01-02 01:55:00
8:55 PM,68.7,66.9,94,29.98,10.0,South,11.5,-,N/A,,Mostly Cloudy,190,2013-01-02 02:55:00
9:13 PM,68.0,68.0,100,29.99,10.0,SSW,10.4,-,N/A,,Overcast,210,2013-01-02 03:13:00
9:55 PM,68.9,67.5,95,29.98,10.0,SSW,10.4,-,N/A,,Overcast,200,2013-01-02 03:55:00
9:58 PM,69.8,68.0,94,29.98,10.0,SW,9.2,-,N/A,,Overcast,220,2013-01-02 03:58:00
10:02 PM,69.8,68.0,94,29.98,10.0,SSW,10.4,-,N/A,,Overcast,210,2013-01-02 04:02:00
10:28 PM,69.8,68.0,94,29.98,9.0,SSW,11.5,-,N/A,Rain,Light Rain,210,2013-01-02 04:28:00
10:31 PM,69.8,66.2,88,29.98,9.0,SW,11.5,-,N/A,Rain,Light Rain,230,2013-01-02 04:31:00
10:32 PM,69.8,66.2,88,29.98,9.0,SW,10.4,-,N/A,Rain,Light Rain,230,2013-01-02 04:32:00
10:38 PM,69.8,66.2,88,29.98,10.0,SW,15.0,-,N/A,Rain,Light Rain,220,2013-01-02 04:38:00
10:39 PM,69.8,66.2,88,29.98,10.0,SW,11.5,-,N/A,,Mostly Cloudy,220,2013-01-02 04:39:00
10:41 PM,69.8,66.2,88,29.98,10.0,SW,11.5,-,N/A,,Mostly Cloudy,220,2013-01-02 04:41:00
10:55 PM,69.4,66.4,90,29.98,10.0,SSW,12.7,19.6,0.00,,Mostly Cloudy,210,2013-01-02 04:55:00
11:10 PM,69.8,66.2,88,29.97,10.0,SSW,13.8,-,N/A,,Mostly Cloudy,210,2013-01-02 05:10:00
11:20 PM,69.8,66.2,88,29.97,10.0,SSW,11.5,-,N/A,,Mostly Cloudy,210,2013-01-02 05:20:00
11:21 PM,69.8,66.2,88,29.97,10.0,SSW,10.4,-,N/A,,Mostly Cloudy,210,2013-01-02 05:21:00
11:23 PM,69.8,66.2,88,29.97,10.0,SSW,10.4,-,N/A,,Mostly Cloudy,210,2013-01-02 05:23:00
11:24 PM,69.8,66.2,88,29.97,10.0,SSW,10.4,-,N/A,,Mostly Cloudy,210,2013-01-02 05:24:00
11:30 PM,69.8,66.2,88,29.97,10.0,SSW,11.5,-,N/A,,Light Drizzle,200,2013-01-02 05:30:00
11:31 PM,69.8,66.2,88,29.97,9.0,SSW,10.4,-,N/A,,Light Drizzle,200,2013-01-02 05:31:00
11:51 PM,69.8,68.0,94,29.96,10.0,SW,12.7,-,N/A,,Light Drizzle,220,2013-01-02 05:51:00
11:54 PM,68.0,68.0,100,29.96,10.0,SW,10.4,-,N/A,,Scattered Clouds,220,2013-01-02 05:54:00
11:55 PM,68.9,67.1,94,29.96,10.0,SW,10.4,-,0.00,,Light Drizzle,220,2013-01-02 05:55:00